Time;durP1;ratioP1;P1;durP2;ratioP2;P2;SDS_P1;SDS_P2;PMS_P1;PMS_P2;Temp;Humidity;BMP_temperature;BMP_pressure;BME280_temperature;BME280_humidity;BME280_pressure;Samples;Min_cycle;Max_cycle;Signal;HPM_P1;HPM_P2
2022/09/15 00:01:05;;;;;;;5.35;2.00;;;;;;;23.07;64.22;99582.38;5050170;28;20215;-81
2022/09/15 00:03:32;;;;;;;1.80;1.70;;;;;;;23.26;62.15;99566.53;5050901;28;20676;-80
2022/09/15 00:05:59;;;;;;;1.67;1.40;;;;;;;23.50;61.61;99568.09;5050845;28;20199;-79
2022/09/15 00:08:26;;;;;;;1.67;1.60;;;;;;;23.79;60.15;99583.50;5051449;28;20203;-81
2022/09/15 00:10:56;;;;;;;3.17;2.17;;;;;;;23.65;60.15;99559.47;5050456;28;20199;-80
2022/09/15 00:13:23;;;;;;;4.22;1.70;;;;;;;23.83;60.05;99595.63;5051250;28;20217;-80
2022/09/15 00:15:50;;;;;;;5.25;1.70;;;;;;;23.87;58.66;99591.91;5050035;28;20227;-79
2022/09/15 00:18:19;;;;;;;3.53;1.45;;;;;;;24.01;58.29;99584.19;5050916;28;20198;-79
2022/09/15 00:20:46;;;;;;;3.95;1.50;;;;;;;24.03;57.18;99582.34;5050723;28;20219;-79
2022/09/15 00:23:14;;;;;;;1.83;1.52;;;;;;;24.23;56.05;99588.47;5050681;28;20199;-77
2022/09/15 00:25:44;;;;;;;1.60;1.50;;;;;;;24.41;55.36;99593.75;5050745;28;20207;-78
2022/09/15 00:28:11;;;;;;;2.40;1.38;;;;;;;24.46;54.73;99582.91;5050589;28;20257;-77
2022/09/15 00:30:41;;;;;;;4.00;1.70;;;;;;;24.66;54.17;99590.72;5050310;28;20204;-77
2022/09/15 00:33:08;;;;;;;2.17;1.90;;;;;;;24.58;54.17;99590.25;5014081;28;20253;-78
2022/09/15 00:35:38;;;;;;;3.15;1.73;;;;;;;24.73;53.44;99600.09;5049993;28;20192;-77
2022/09/15 00:38:06;;;;;;;1.98;1.33;;;;;;;24.61;53.59;99574.22;5050321;28;20632;-78
2022/09/15 00:40:34;;;;;;;2.25;1.50;;;;;;;24.67;53.13;99584.50;5050641;28;20234;-78
2022/09/15 00:43:01;;;;;;;6.28;1.67;;;;;;;24.69;53.02;99583.47;5049729;28;20278;-78
2022/09/15 00:45:27;;;;;;;2.05;1.83;;;;;;;24.67;53.26;99584.50;5050225;28;20228;-76
2022/09/15 00:47:54;;;;;;;2.10;1.75;;;;;;;24.78;52.60;99587.47;5050332;28;20215;-77
2022/09/15 00:50:22;;;;;;;3.00;1.42;;;;;;;24.81;52.56;99592.59;5050289;28;20218;-78
2022/09/15 00:52:56;;;;;;;3.50;1.67;;;;;;;24.76;52.52;99568.09;5050522;28;20617;-79
2022/09/15 00:55:28;;;;;;;1.40;1.27;;;;;;;24.78;52.71;99587.47;5049950;28;20289;-78
2022/09/15 00:57:59;;;;;;;3.55;2.20;;;;;;;24.73;52.34;99597.44;5050032;28;20203;-78
2022/09/15 01:00:27;;;;;;;3.17;1.38;;;;;;;24.79;52.11;99593.63;5050326;28;20235;-77
2022/09/15 01:02:56;;;;;;;5.40;1.80;;;;;;;24.80;52.08;99601.50;5050107;28;20206;-78
2022/09/15 01:05:30;;;;;;;2.35;1.65;;;;;;;24.78;52.16;99587.47;5011863;28;20269;-78
2022/09/15 01:08:00;;;;;;;1.60;1.40;;;;;;;24.77;52.24;99593.69;5047095;28;20664;-79
2022/09/15 01:10:29;;;;;;;8.95;1.70;;;;;;;24.79;51.96;99601.59;5050304;28;20199;-78
2022/09/15 01:12:59;;;;;;;3.28;1.73;;;;;;;24.84;51.60;99608.41;5049647;28;20864;-79
2022/09/15 01:15:39;;;;;;;4.20;1.60;;;;;;;24.86;52.01;99610.97;5050183;28;20264;-78
2022/09/15 01:18:22;;;;;;;2.50;1.52;;;;;;;24.84;51.88;99613.69;5050002;28;20643;-78
2022/09/15 01:21:11;;;;;;;3.40;1.65;;;;;;;24.82;51.69;99604.94;5035837;28;20230;-79
2022/09/15 01:24:31;;;;;;;1.80;1.70;;;;;;;24.74;51.94;99601.81;5031427;28;20203;-78
2022/09/15 01:27:06;;;;;;;1.60;1.50;;;;;;;24.67;51.80;99600.41;5049635;28;20203;-79
2022/09/15 01:30:11;;;;;;;1.65;1.55;;;;;;;24.74;51.97;99612.41;5018751;28;20194;-79
2022/09/15 01:33:05;;;;;;;1.75;1.65;;;;;;;24.66;52.33;99603.97;5011806;28;20615;-79
2022/09/15 01:35:44;;;;;;;6.00;1.80;;;;;;;24.62;52.45;99610.38;4984516;28;20203;-78
2022/09/15 01:38:21;;;;;;;5.15;1.70;;;;;;;24.59;52.37;99614.03;5010493;28;20204;-78
2022/09/15 01:40:54;;;;;;;3.05;1.63;;;;;;;24.54;52.43;99600.16;5011288;28;20220;-79
2022/09/15 01:43:24;;;;;;;1.88;1.48;;;;;;;24.54;52.53;99605.44;4997020;28;20212;-78
2022/09/15 01:45:52;;;;;;;1.50;1.40;;;;;;;24.42;52.81;99599.91;5011193;28;20232;-78
2022/09/15 01:48:24;;;;;;;1.67;1.35;;;;;;;24.44;52.80;99588.28;5011901;28;20207;-78
2022/09/15 01:50:55;;;;;;;1.83;1.60;;;;;;;24.55;52.46;99598.34;5011467;28;20228;-77
2022/09/15 01:53:23;;;;;;;1.80;1.70;;;;;;;24.44;52.41;99588.28;5011332;28;20196;-77
2022/09/15 01:55:54;;;;;;;1.88;1.48;;;;;;;24.61;52.25;99596.25;5011742;28;20644;-77
2022/09/15 01:58:21;;;;;;;2.03;1.67;;;;;;;24.56;52.13;99571.78;5011203;28;20205;-78
2022/09/15 02:00:52;;;;;;;6.90;1.98;;;;;;;24.64;52.07;99574.91;5010996;28;20228;-78
2022/09/15 02:03:27;;;;;;;3.15;1.52;;;;;;;24.78;51.21;99592.78;5011407;28;20201;-77
2022/09/15 02:06:01;;;;;;;2.45;1.30;;;;;;;24.82;51.25;99598.78;5011268;28;20215;-78
2022/09/15 02:08:37;;;;;;;3.03;1.50;;;;;;;24.88;50.98;99583.44;5016486;28;20212;-78
2022/09/15 02:11:14;;;;;;;4.07;1.60;;;;;;;24.84;51.06;99565.09;5052488;28;20678;-77
2022/09/15 02:13:50;;;;;;;2.65;1.70;;;;;;;24.94;50.54;99576.94;5034191;28;20200;-78
2022/09/15 02:16:21;;;;;;;1.88;1.30;;;;;;;24.90;50.73;99576.25;5053072;28;20206;-77
2022/09/15 02:19:02;;;;;;;3.83;1.52;;;;;;;24.87;50.59;99563.16;5052791;28;20203;-79
2022/09/15 02:21:36;;;;;;;1.52;1.50;;;;;;;24.93;50.75;99585.88;5052877;28;20215;-77
2022/09/15 02:24:09;;;;;;;2.25;1.65;;;;;;;24.76;50.69;99565.44;5053106;28;20236;-78
2022/09/15 02:26:40;;;;;;;4.45;1.50;;;;;;;24.80;50.83;99559.06;5052817;28;20204;-78
2022/09/15 02:29:12;;;;;;;4.18;1.42;;;;;;;24.84;50.79;99571.25;5052530;28;20671;-77
2022/09/15 02:31:41;;;;;;;4.47;1.88;;;;;;;24.58;50.54;99529.28;5051367;28;20621;-78
2022/09/15 02:34:14;;;;;;;2.20;1.90;;;;;;;24.84;50.37;99565.97;5052605;28;20721;-78
2022/09/15 02:36:42;;;;;;;1.60;1.40;;;;;;;24.84;50.32;99571.25;5018510;28;20597;-77
2022/09/15 02:39:13;;;;;;;2.55;1.80;;;;;;;24.86;50.25;99569.41;5052525;28;20206;-78
2022/09/15 02:41:40;;;;;;;3.03;1.70;;;;;;;24.86;50.48;99569.41;5033501;28;20616;-78
2022/09/15 02:44:08;;;;;;;1.65;1.52;;;;;;;24.42;50.13;99488.59;5051573;28;20210;-78
2022/09/15 02:46:35;;;;;;;4.50;1.70;;;;;;;24.70;51.00;99536.59;5051690;28;20795;-78
2022/09/15 02:49:02;;;;;;;1.70;1.60;;;;;;;24.77;50.14;99553.91;5052228;28;20195;-79
2022/09/15 02:51:30;;;;;;;3.72;1.70;;;;;;;24.84;50.26;99558.00;5052549;28;20678;-78
2022/09/15 02:53:57;;;;;;;3.08;1.63;;;;;;;24.82;49.98;99562.50;5033196;28;20235;-78
2022/09/15 02:56:24;;;;;;;3.78;1.58;;;;;;;24.86;49.89;99569.41;5036015;28;20261;-78
2022/09/15 02:58:51;;;;;;;5.63;1.40;;;;;;;24.90;50.23;99573.59;5052237;28;20203;-79
2022/09/15 03:01:18;;;;;;;2.33;1.40;;;;;;;24.86;50.06;99576.50;5052301;28;20711;-78
2022/09/15 03:03:46;;;;;;;2.63;1.52;;;;;;;24.90;50.18;99560.34;5051195;28;20898;-78
2022/09/15 03:06:16;;;;;;;1.40;1.30;;;;;;;25.04;50.03;99571.06;5052472;28;20257;-75
2022/09/15 03:08:49;;;;;;;3.63;1.70;;;;;;;25.08;50.22;99575.28;5052499;28;20199;-71
2022/09/15 03:11:18;;;;;;;1.75;1.40;;;;;;;24.99;49.79;99570.47;5052008;28;20297;-76
2022/09/15 03:13:45;;;;;;;1.48;1.38;;;;;;;24.78;50.03;99529.13;5052768;28;20298;-77
2022/09/15 03:16:14;;;;;;;1.88;1.75;;;;;;;25.00;49.62;99566.91;5051877;28;20234;-77
2022/09/15 03:18:41;;;;;;;5.85;1.70;;;;;;;25.13;49.62;99575.94;5051868;28;20269;-77
2022/09/15 03:21:10;;;;;;;1.63;1.52;;;;;;;25.16;50.06;99578.41;5052324;28;20231;-75
2022/09/15 03:23:37;;;;;;;1.60;1.50;;;;;;;25.12;49.89;99578.63;5051958;28;20204;-77
2022/09/15 03:26:06;;;;;;;3.13;1.70;;;;;;;24.74;49.48;99506.34;5051934;28;20195;-77
2022/09/15 03:28:33;;;;;;;2.00;1.80;;;;;;;25.07;49.58;99578.91;5051671;28;20659;-77
2022/09/15 03:31:00;;;;;;;1.50;1.40;;;;;;;25.04;49.86;99579.03;5052072;28;20192;-76
2022/09/15 03:33:28;;;;;;;4.30;1.85;;;;;;;25.03;49.75;99579.13;5051902;28;20691;-75
2022/09/15 03:35:55;;;;;;;2.05;1.58;;;;;;;24.96;50.13;99570.66;5050784;28;20215;-77
2022/09/15 03:38:23;;;;;;;3.53;1.65;;;;;;;24.90;50.51;99570.94;5051592;28;20200;-78
2022/09/15 03:40:58;;;;;;;2.80;1.50;;;;;;;24.98;50.01;99562.59;5051294;28;20215;-76
2022/09/15 03:43:27;;;;;;;3.10;1.60;;;;;;;25.04;50.17;99586.16;5051357;28;20202;-77
2022/09/15 03:45:54;;;;;;;1.88;1.58;;;;;;;24.97;49.96;99575.00;5051497;28;20673;-78
2022/09/15 03:48:22;;;;;;;2.53;1.70;;;;;;;25.02;50.17;99572.97;5051037;28;20206;-77
2022/09/15 03:50:49;;;;;;;2.22;1.40;;;;;;;25.01;49.80;99581.00;5051021;28;20191;-77
2022/09/15 03:53:16;;;;;;;1.60;1.33;;;;;;;25.03;49.58;99572.03;5051327;28;20192;-78
2022/09/15 03:55:44;;;;;;;3.42;1.50;;;;;;;24.98;49.77;99558.16;5051556;28;20238;-76
2022/09/15 03:58:11;;;;;;;3.65;1.70;;;;;;;25.17;49.70;99581.94;5051137;28;20207;-76
2022/09/15 04:00:39;;;;;;;1.50;1.40;;;;;;;25.18;49.21;99568.56;5051196;28;20203;-77
2022/09/15 04:03:07;;;;;;;4.15;1.70;;;;;;;25.09;49.04;99555.78;5051315;28;20624;-76
2022/09/15 04:05:34;;;;;;;1.60;1.33;;;;;;;25.41;48.94;99577.97;5051163;28;20249;-78
2022/09/15 04:08:02;;;;;;;3.42;1.65;;;;;;;25.46;49.03;99586.56;5051191;28;20346;-79
2022/09/15 04:10:29;;;;;;;1.83;1.73;;;;;;;25.45;48.76;99589.28;5050910;28;20655;-78
2022/09/15 04:12:56;;;;;;;2.47;1.40;;;;;;;25.50;48.60;99592.56;5051093;28;20207;-77
2022/09/15 04:15:22;;;;;;;2.53;1.40;;;;;;;25.49;48.51;99590.81;5054863;28;20196;-79
2022/09/15 04:17:51;;;;;;;3.15;1.70;;;;;;;25.37;48.63;99554.31;5057123;28;20199;-81
2022/09/15 04:20:17;;;;;;;2.35;1.50;;;;;;;25.57;48.59;99591.31;5056980;28;20210;-82
2022/09/15 04:22:45;;;;;;;6.22;1.67;;;;;;;25.59;48.43;99592.94;5054357;28;20223;-81
2022/09/15 04:25:12;;;;;;;3.15;1.60;;;;;;;25.65;48.72;99586.41;5014981;28;20245;-77
2022/09/15 04:27:39;;;;;;;2.65;2.05;;;;;;;25.59;48.67;99571.69;5050319;28;20690;-77
2022/09/15 04:30:08;;;;;;;1.55;1.45;;;;;;;25.79;48.19;99586.53;5050388;28;20206;-76
2022/09/15 04:32:35;;;;;;;3.75;1.98;;;;;;;25.63;48.78;99567.06;5050003;28;20206;-77
2022/09/15 04:35:04;;;;;;;3.90;1.80;;;;;;;25.95;48.06;99587.41;5030440;28;20698;-77
2022/09/15 04:37:32;;;;;;;1.90;1.77;;;;;;;25.96;48.35;99590.91;5031590;28;20203;-77
2022/09/15 04:39:59;;;;;;;4.50;1.90;;;;;;;25.97;48.02;99595.31;5050350;28;20260;-77
2022/09/15 04:42:26;;;;;;;2.92;1.70;;;;;;;26.11;48.35;99590.91;5050553;28;20241;-76
2022/09/15 04:44:53;;;;;;;1.58;1.48;;;;;;;26.08;47.80;99585.75;5031568;28;20227;-76
2022/09/15 04:47:19;;;;;;;2.00;1.90;;;;;;;26.24;47.78;99590.25;5050561;28;20203;-77
2022/09/15 04:49:46;;;;;;;8.75;1.90;;;;;;;26.15;47.67;99587.13;5050318;28;20606;-76
2022/09/15 04:52:14;;;;;;;4.40;1.80;;;;;;;26.23;48.06;99583.22;5050529;28;20199;-75
2022/09/15 04:54:41;;;;;;;1.75;1.42;;;;;;;26.14;47.87;99596.06;5050409;28;20659;-76
2022/09/15 04:57:08;;;;;;;1.65;1.50;;;;;;;26.13;48.60;99583.72;5031432;28;20678;-75
2022/09/15 04:59:35;;;;;;;1.88;1.65;;;;;;;26.22;48.41;99584.19;5014895;28;20211;-77
2022/09/15 05:02:02;;;;;;;4.28;1.90;;;;;;;26.22;48.04;99585.00;5051834;28;20227;-77
2022/09/15 05:04:28;;;;;;;3.40;1.98;;;;;;;26.13;48.41;99577.53;5053893;28;20199;-77
2022/09/15 05:06:55;;;;;;;2.10;1.67;;;;;;;26.19;48.28;99581.66;5053994;28;20203;-77
2022/09/15 05:09:25;;;;;;;8.27;2.03;;;;;;;26.23;48.25;99567.25;5053915;28;20286;-77
2022/09/15 05:11:51;;;;;;;6.78;2.00;;;;;;;26.22;48.08;99554.94;5053678;28;20203;-77
2022/09/15 05:14:18;;;;;;;4.28;2.00;;;;;;;26.22;48.55;99568.22;5074399;28;20626;-79
2022/09/15 05:16:45;;;;;;;1.60;1.50;;;;;;;26.40;48.67;99581.28;5067936;28;20203;-79
2022/09/15 05:19:12;;;;;;;4.18;1.80;;;;;;;26.50;48.07;99576.31;5025081;28;20602;-78
2022/09/15 05:21:39;;;;;;;6.05;1.67;;;;;;;26.54;48.31;99575.22;5018366;28;20836;-75
2022/09/15 05:24:06;;;;;;;5.03;1.85;;;;;;;26.66;48.06;99578.94;5058634;28;20198;-75
2022/09/15 05:26:34;;;;;;;1.80;1.70;;;;;;;26.61;48.11;99564.09;5074289;28;20230;-76
2022/09/15 05:29:01;;;;;;;93.32;52.05;;;;;;;26.65;48.04;99580.72;5072579;28;20222;-75
2022/09/15 05:31:30;;;;;;;4.43;2.60;;;;;;;26.86;47.46;99584.81;5073940;28;20260;-76
2022/09/15 05:33:57;;;;;;;1.70;1.60;;;;;;;26.83;47.62;99577.00;5074058;28;20232;-75
2022/09/15 05:36:24;;;;;;;3.72;1.50;;;;;;;26.99;47.59;99584.94;5068958;28;20207;-76
2022/09/15 05:38:52;;;;;;;2.15;1.50;;;;;;;27.01;47.63;99583.91;5073868;28;20637;-77
2022/09/15 05:41:20;;;;;;;5.55;2.47;;;;;;;27.11;47.58;99577.06;5066873;28;20230;-77
2022/09/15 05:43:49;;;;;;;4.57;1.98;;;;;;;27.13;46.98;99581.44;5073617;28;20253;-77
2022/09/15 05:46:17;;;;;;;1.88;1.42;;;;;;;27.32;46.93;99582.91;5073921;28;20232;-76
2022/09/15 05:48:45;;;;;;;5.85;1.83;;;;;;;27.37;46.75;99570.16;5063054;28;20231;-77
2022/09/15 05:51:12;;;;;;;1.60;1.45;;;;;;;27.38;46.25;99566.53;5071153;28;20211;-77
2022/09/15 05:53:40;;;;;;;6.97;1.90;;;;;;;27.40;46.37;99553.13;5073944;28;20206;-77
2022/09/15 05:56:10;;;;;;;5.07;1.90;;;;;;;27.61;45.77;99565.16;5073594;28;20210;-76
2022/09/15 05:58:39;;;;;;;2.38;1.60;;;;;;;27.88;45.09;99573.19;5073761;28;20552;-77
2022/09/15 06:01:09;;;;;;;5.60;1.75;;;;;;;27.99;44.86;99557.34;5072276;28;20207;-76
2022/09/15 06:03:36;;;;;;;5.85;1.58;;;;;;;28.09;44.58;99542.50;5073784;28;20202;-77
2022/09/15 06:06:05;;;;;;;2.53;1.60;;;;;;;28.52;44.23;99565.38;5073446;28;20211;-77
2022/09/15 06:08:33;;;;;;;6.70;2.53;;;;;;;28.65;45.04;99562.72;5045756;28;20206;-78
2022/09/15 06:11:05;;;;;;;21.17;5.10;;;;;;;28.98;46.76;99565.81;5073384;28;20213;-77
2022/09/15 06:13:32;;;;;;;10.40;5.22;;;;;;;28.68;47.06;99525.19;5072680;28;20210;-79
2022/09/15 06:16:08;;;;;;;11.27;3.85;;;;;;;29.02;45.93;99559.31;5073499;28;20340;-78
2022/09/15 06:18:36;;;;;;;11.07;3.45;;;;;;;28.97;45.77;99563.25;5073418;28;20671;-79
2022/09/15 06:21:05;;;;;;;4.25;2.70;;;;;;;29.02;44.43;99545.09;5073510;28;20203;-79
2022/09/15 06:23:32;;;;;;;4.38;2.05;;;;;;;29.20;42.62;99537.63;5073480;28;20256;-79
2022/09/15 06:26:07;;;;;;;5.00;1.60;;;;;;;29.40;41.45;99545.97;5037864;28;20202;-78
2022/09/15 06:28:34;;;;;;;4.93;1.80;;;;;;;29.68;41.66;99560.03;5073560;28;20198;-78
2022/09/15 06:31:01;;;;;;;1.92;1.55;;;;;;;29.89;41.54;99559.38;5073234;28;20206;-80
2022/09/15 06:33:29;;;;;;;6.70;1.90;;;;;;;30.05;41.02;99552.91;5073268;28;20195;-78
2022/09/15 06:35:55;;;;;;;2.38;1.67;;;;;;;30.07;40.25;99556.31;5073302;28;20210;-78
2022/09/15 06:38:22;;;;;;;2.80;1.60;;;;;;;29.92;40.91;99535.09;5072987;28;20206;-78
2022/09/15 06:40:56;;;;;;;3.08;1.60;;;;;;;30.36;40.45;99553.19;5073252;28;20210;-79
2022/09/15 06:43:23;;;;;;;3.67;1.80;;;;;;;30.32;40.24;99561.56;5073028;28;20291;-79
2022/09/15 06:45:51;;;;;;;8.02;1.60;;;;;;;30.30;39.33;99559.00;5073207;28;20623;-79
2022/09/15 06:48:18;;;;;;;3.33;1.73;;;;;;;30.29;39.69;99543.03;5072929;28;20202;-80
2022/09/15 06:50:53;;;;;;;5.35;1.63;;;;;;;30.28;39.39;99531.53;5073226;28;20199;-80
2022/09/15 06:53:20;;;;;;;3.63;1.55;;;;;;;30.21;39.03;99553.50;5073373;28;20206;-77
2022/09/15 06:55:47;;;;;;;4.13;1.65;;;;;;;30.17;39.84;99554.69;5037741;28;20201;-78
2022/09/15 06:58:13;;;;;;;9.93;1.80;;;;;;;30.25;40.09;99554.97;5072898;28;20201;-76
2022/09/15 07:00:40;;;;;;;4.00;1.45;;;;;;;29.98;39.48;99526.63;5054152;28;20669;-78
2022/09/15 07:03:07;;;;;;;5.82;2.03;;;;;;;30.14;39.53;99557.59;5072487;28;20226;-77
2022/09/15 07:05:34;;;;;;;2.90;1.40;;;;;;;29.75;39.44;99487.28;5037271;28;20206;-77
2022/09/15 07:08:02;;;;;;;7.13;1.95;;;;;;;30.29;39.10;99545.72;5072048;28;20199;-77
2022/09/15 07:10:29;;;;;;;3.33;2.17;;;;;;;30.29;39.33;99545.72;5071703;28;20667;-77
2022/09/15 07:12:57;;;;;;;3.92;1.88;;;;;;;30.36;38.62;99549.66;5072536;28;20589;-76
2022/09/15 07:15:26;;;;;;;3.38;1.40;;;;;;;30.40;39.20;99548.44;5072464;28;20198;-77
2022/09/15 07:17:53;;;;;;;6.75;1.30;;;;;;;30.27;39.79;99536.97;5061469;28;20214;-77
2022/09/15 07:20:19;;;;;;;2.97;1.58;;;;;;;30.56;38.84;99543.69;5052353;28;20203;-77
2022/09/15 07:22:46;;;;;;;3.53;1.60;;;;;;;30.67;38.50;99549.09;5033074;28;20230;-77
2022/09/15 07:25:14;;;;;;;3.03;1.58;;;;;;;30.64;38.97;99553.81;5015721;28;20203;-76
2022/09/15 07:27:41;;;;;;;6.93;1.60;;;;;;;30.77;39.48;99557.25;5051931;28;20709;-78
2022/09/15 07:30:09;;;;;;;2.15;1.50;;;;;;;30.81;38.91;99545.34;5051965;28;20214;-77
2022/09/15 07:32:35;;;;;;;2.75;1.75;;;;;;;30.87;38.33;99564.47;5051781;28;20578;-78
2022/09/15 07:35:02;;;;;;;1.58;1.48;;;;;;;30.92;40.10;99559.63;5051995;28;20703;-77
2022/09/15 07:37:31;;;;;;;5.00;2.05;;;;;;;30.93;38.35;99558.63;5051824;28;20199;-77
2022/09/15 07:39:57;;;;;;;7.43;2.25;;;;;;;30.98;38.66;99561.88;5051908;28;20222;-76
2022/09/15 07:42:26;;;;;;;3.65;1.58;;;;;;;31.12;38.81;99573.31;5051869;28;20634;-77
2022/09/15 07:44:52;;;;;;;4.03;2.15;;;;;;;31.19;37.56;99569.19;5051505;28;20244;-77
2022/09/15 07:47:19;;;;;;;8.73;1.83;;;;;;;31.14;38.10;99574.06;5051592;28;20203;-77
2022/09/15 07:49:46;;;;;;;1.75;1.40;;;;;;;31.22;37.85;99585.03;5051556;28;20210;-77
2022/09/15 07:52:13;;;;;;;5.00;2.00;;;;;;;31.27;37.14;99577.50;5051255;28;20207;-77
2022/09/15 07:54:39;;;;;;;4.38;1.60;;;;;;;31.28;36.99;99565.81;5051541;28;20207;-77
2022/09/15 07:57:06;;;;;;;4.03;1.40;;;;;;;31.31;36.98;99573.59;5051418;28;20217;-76
2022/09/15 07:59:34;;;;;;;5.75;2.22;;;;;;;31.57;38.80;99585.00;5051306;28;20211;-77
2022/09/15 08:02:01;;;;;;;2.83;1.63;;;;;;;31.47;37.77;99584.81;5051136;28;20606;-76
2022/09/15 08:04:28;;;;;;;6.70;1.80;;;;;;;31.61;37.33;99581.91;5051309;28;20199;-76
2022/09/15 08:06:55;;;;;;;4.32;1.80;;;;;;;31.82;35.96;99590.91;5051459;28;20244;-77
2022/09/15 08:09:22;;;;;;;2.42;1.50;;;;;;;31.98;36.04;99592.38;5051232;28;20213;-76
2022/09/15 08:11:48;;;;;;;6.18;1.70;;;;;;;32.01;35.95;99589.44;5051186;28;20206;-76
2022/09/15 08:14:15;;;;;;;6.10;1.70;;;;;;;32.08;34.73;99602.25;5050976;28;20207;-76
2022/09/15 08:16:43;;;;;;;6.18;1.70;;;;;;;32.21;34.03;99596.75;5051161;28;20194;-77
2022/09/15 08:19:11;;;;;;;4.13;1.95;;;;;;;32.02;34.41;99593.84;5051167;28;20207;-76
2022/09/15 08:21:38;;;;;;;5.82;1.95;;;;;;;31.96;34.53;99587.16;5015968;28;20198;-76
2022/09/15 08:24:05;;;;;;;3.40;1.75;;;;;;;32.11;34.02;99602.00;5050969;28;20681;-77
2022/09/15 08:26:32;;;;;;;2.78;1.45;;;;;;;32.15;34.55;99592.72;5050864;28;20202;-77
2022/09/15 08:28:59;;;;;;;6.97;1.60;;;;;;;32.25;34.55;99593.69;5015593;28;20194;-77
2022/09/15 08:31:26;;;;;;;11.05;1.77;;;;;;;32.38;34.78;99598.91;5051045;28;20645;-75
2022/09/15 08:33:55;;;;;;;6.65;1.95;;;;;;;32.56;35.04;99591.16;5050902;28;20206;-75
2022/09/15 08:36:23;;;;;;;5.80;1.58;;;;;;;32.49;34.70;99590.81;5050505;28;20258;-74
2022/09/15 08:38:50;;;;;;;3.72;1.60;;;;;;;32.37;34.43;99581.94;5050866;28;20206;-75
2022/09/15 08:41:22;;;;;;;6.22;1.75;;;;;;;32.33;33.95;99585.00;5050584;28;20207;-74
2022/09/15 08:43:58;;;;;;;5.68;1.83;;;;;;;32.56;33.86;99570.53;5050759;28;20237;-75
2022/09/15 08:46:29;;;;;;;7.93;1.55;;;;;;;32.51;33.47;99578.09;5050568;28;20222;-75
2022/09/15 08:49:05;;;;;;;1.65;1.45;;;;;;;32.41;33.76;99569.13;5050573;28;20288;-75
2022/09/15 08:51:41;;;;;;;6.43;1.67;;;;;;;32.65;33.40;99575.16;5050508;28;20190;-75
2022/09/15 08:54:14;;;;;;;3.20;1.95;;;;;;;32.60;33.77;99563.09;5015381;28;20210;-75
2022/09/15 08:56:43;;;;;;;5.85;2.25;;;;;;;32.69;33.92;99532.78;5050555;28;20218;-75
2022/09/15 08:59:14;;;;;;;4.65;1.75;;;;;;;32.86;34.58;99557.22;5050600;28;20202;-75
2022/09/15 09:02:05;;;;;;;7.93;1.92;;;;;;;32.99;32.43;99561.56;5050730;28;20207;-75
2022/09/15 09:05:10;;;;;;;4.85;1.70;;;;;;;33.30;32.64;99549.88;5050324;28;20203;-75
2022/09/15 09:08:01;;;;;;;8.45;2.10;;;;;;;33.23;32.63;99538.81;5008396;28;20204;-75
2022/09/15 09:10:38;;;;;;;2.40;1.70;;;;;;;33.28;32.23;99546.47;5008448;28;20567;-75
2022/09/15 09:13:16;;;;;;;8.55;1.83;;;;;;;33.42;32.35;99546.13;5008436;28;20203;-76
2022/09/15 09:15:59;;;;;;;3.38;1.70;;;;;;;33.35;32.38;99539.59;5008607;28;20204;-76
2022/09/15 09:18:45;;;;;;;2.65;1.90;;;;;;;33.57;32.09;99533.16;5002167;28;20204;-75
2022/09/15 09:21:19;;;;;;;4.97;2.13;;;;;;;33.52;31.89;99541.63;4955571;28;20200;-75
2022/09/15 09:23:52;;;;;;;5.68;1.92;;;;;;;33.49;31.84;99544.59;5008034;28;20235;-73
2022/09/15 09:26:19;;;;;;;3.58;1.92;;;;;;;33.64;31.74;99537.88;5008231;28;20545;-75
2022/09/15 09:28:50;;;;;;;3.65;1.90;;;;;;;33.81;31.43;99542.63;5008049;28;20688;-75
2022/09/15 09:31:20;;;;;;;8.43;1.60;;;;;;;33.85;31.14;99546.72;5008292;28;20598;-75
2022/09/15 09:33:53;;;;;;;3.60;1.55;;;;;;;33.84;31.07;99545.03;5008056;28;20220;-74
2022/09/15 09:36:20;;;;;;;3.20;1.90;;;;;;;33.92;31.02;99535.41;4959476;28;20208;-74
2022/09/15 09:38:50;;;;;;;4.45;1.42;;;;;;;33.92;31.30;99546.19;5008135;28;20347;-74
2022/09/15 09:41:21;;;;;;;3.83;1.70;;;;;;;33.92;31.24;99540.78;5008287;28;20216;-74
2022/09/15 09:43:49;;;;;;;4.20;1.67;;;;;;;34.04;30.60;99524.38;5015660;28;20733;-74
2022/09/15 09:46:19;;;;;;;6.68;1.70;;;;;;;34.01;30.77;99529.19;5049838;28;20633;-74
2022/09/15 09:48:50;;;;;;;5.53;1.92;;;;;;;33.91;30.74;99507.66;5050886;28;20218;-74
2022/09/15 09:51:34;;;;;;;4.88;2.03;;;;;;;34.28;30.20;99537.50;5053686;28;20603;-74
2022/09/15 09:54:11;;;;;;;5.43;1.65;;;;;;;34.51;29.97;99533.50;5053643;28;20686;-74
2022/09/15 09:56:39;;;;;;;7.57;1.80;;;;;;;34.54;30.02;99535.91;5053656;28;20207;-74
2022/09/15 09:59:26;;;;;;;3.33;1.42;;;;;;;34.29;29.89;99502.34;5018301;28;20289;-74
2022/09/15 10:02:10;;;;;;;2.50;1.60;;;;;;;34.54;29.45;99514.38;5053774;28;20210;-74
2022/09/15 10:04:37;;;;;;;8.98;1.98;;;;;;;34.44;29.85;99531.53;5053356;28;20245;-75
2022/09/15 10:07:04;;;;;;;3.55;1.67;;;;;;;34.50;28.96;99530.97;5018817;28;20230;-73
2022/09/15 10:09:33;;;;;;;5.78;1.75;;;;;;;34.72;29.15;99531.53;5055938;28;20202;-73
2022/09/15 10:12:02;;;;;;;2.53;1.65;;;;;;;34.62;29.52;99532.50;5059567;28;20211;-74
2022/09/15 10:14:31;;;;;;;9.05;1.73;;;;;;;34.59;29.16;99509.41;5055783;28;20195;-74
2022/09/15 10:17:01;;;;;;;8.88;1.92;;;;;;;34.72;28.97;99520.75;5053293;28;20206;-74
2022/09/15 10:19:29;;;;;;;6.38;2.20;;;;;;;34.79;29.10;99516.50;5053314;28;20671;-73
2022/09/15 10:21:58;;;;;;;4.13;1.75;;;;;;;34.88;28.84;99519.31;5053362;28;20273;-73
2022/09/15 10:24:35;;;;;;;6.00;1.95;;;;;;;35.19;28.97;99523.53;5034821;28;20226;-73
2022/09/15 10:27:27;;;;;;;5.05;1.60;;;;;;;35.11;28.38;99515.28;5053053;28;20202;-72
2022/09/15 10:29:54;;;;;;;10.38;2.30;;;;;;;35.05;28.46;99510.47;5053463;28;20624;-73
2022/09/15 10:32:27;;;;;;;4.25;1.63;;;;;;;34.97;28.63;99515.75;5053439;28;20207;-74
2022/09/15 10:35:06;;;;;;;5.45;1.70;;;;;;;35.07;28.65;99492.34;5053347;28;20253;-74
2022/09/15 10:37:46;;;;;;;7.07;1.88;;;;;;;35.06;28.66;99512.19;5053200;28;20198;-73
2022/09/15 10:40:33;;;;;;;5.18;2.25;;;;;;;34.89;28.75;99504.88;5003774;28;20696;-73
2022/09/15 10:43:16;;;;;;;7.15;1.83;;;;;;;34.73;29.74;99492.84;5050032;28;20321;-74
2022/09/15 10:45:48;;;;;;;6.95;1.95;;;;;;;34.82;28.86;99516.22;5052135;28;20760;-75
2022/09/15 10:48:31;;;;;;;3.42;1.70;;;;;;;34.94;28.59;99518.75;5052244;28;20749;-75
2022/09/15 10:51:07;;;;;;;4.75;1.92;;;;;;;34.91;28.97;99514.50;5052786;28;20264;-73
2022/09/15 10:53:51;;;;;;;7.35;1.90;;;;;;;34.85;28.94;99505.13;5052871;28;20203;-73
2022/09/15 10:56:27;;;;;;;5.22;1.80;;;;;;;34.93;29.09;99506.25;5017766;28;20287;-75
2022/09/15 10:59:02;;;;;;;3.42;2.15;;;;;;;34.88;29.18;99498.63;5052551;28;20211;-74
2022/09/15 11:01:57;;;;;;;5.28;2.00;;;;;;;34.91;29.04;99503.72;5052040;28;20202;-74
2022/09/15 11:05:05;;;;;;;5.80;2.40;;;;;;;35.17;29.34;99498.56;5052245;28;20226;-74
2022/09/15 11:07:41;;;;;;;4.60;1.60;;;;;;;35.22;29.13;99494.41;5033628;28;20663;-74
2022/09/15 11:10:19;;;;;;;5.57;1.65;;;;;;;34.97;29.02;99497.72;5051271;28;20670;-72
2022/09/15 11:13:00;;;;;;;4.65;1.70;;;;;;;34.88;28.83;99497.78;5052307;28;20210;-73
2022/09/15 11:15:43;;;;;;;6.22;1.83;;;;;;;34.95;28.90;99477.31;5052110;28;20203;-73
2022/09/15 11:18:26;;;;;;;9.00;1.80;;;;;;;34.97;28.79;99488.78;5052556;28;20322;-75
2022/09/15 11:21:10;;;;;;;6.18;2.25;;;;;;;34.94;28.76;99489.09;5050875;28;20724;-77
2022/09/15 11:23:40;;;;;;;13.80;2.28;;;;;;;34.80;29.10;99476.94;5051954;28;20230;-75
2022/09/15 11:26:13;;;;;;;6.93;1.98;;;;;;;35.15;29.14;99477.13;5052016;28;20191;-76
2022/09/15 11:28:47;;;;;;;5.35;2.28;;;;;;;35.24;29.37;99483.50;5052020;28;20207;-74
2022/09/15 11:31:19;;;;;;;7.47;2.20;;;;;;;35.61;28.96;99492.41;5052069;28;20198;-74
2022/09/15 11:33:51;;;;;;;7.07;2.15;;;;;;;35.31;29.22;99476.50;5051848;28;20195;-74
2022/09/15 11:36:23;;;;;;;12.25;1.83;;;;;;;34.90;29.17;99480.44;5051466;28;20229;-74
2022/09/15 11:38:56;;;;;;;34.67;2.95;;;;;;;34.70;29.30;99416.84;5053085;28;20220;-75
2022/09/15 11:41:30;;;;;;;4.70;1.67;;;;;;;34.93;29.53;99484.69;5016582;28;20680;-74
2022/09/15 11:44:11;;;;;;;7.72;1.90;;;;;;;34.80;29.61;99472.41;5051909;28;20304;-74
2022/09/15 11:46:56;;;;;;;2.92;2.03;;;;;;;34.77;29.19;99486.16;5051471;28;20230;-74
2022/09/15 11:49:28;;;;;;;8.10;1.83;;;;;;;35.07;29.30;99474.28;5051648;28;20727;-74
2022/09/15 11:52:02;;;;;;;6.28;2.15;;;;;;;35.20;28.85;99471.31;5051613;28;20724;-74